Utah County RPA :: 6FORTHALL

liberation: 2020-10-10  08:10     latitude: 43.034722     longitude: -112.331944 99 birds
# LOFT PRING MILES ARRIVAL SPEED ToWin
1 Riley Allred AU20-UCA-107 204.725 2020-10-10 12:59:01.466 1246.665 00:00:00
2 Peery Loft AU20-UCA-0025 208.66 2020-10-10 13:05:14.944 1243.839 00:00:40
3 Riley Allred AU20-UCA-116 204.725 2020-10-10 12:59:59.288 1242.522 00:00:58
4 Cole Allred AU20-NLI-2413 204.725 2020-10-10 13:00:20.615 1241.001 00:01:19
5 Riley Allred AU20-UCA-106 204.725 2020-10-10 13:02:30.327 1231.829 00:03:29
6 Craig Allred AU20-UVI-358 204.725 2020-10-10 13:03:00.177 1229.737 00:03:59
7 Cole Allred AU20-NLI-2015 204.725 2020-10-10 13:03:02.436 1229.579 00:04:01
8 Riley Allred AU20-UCA-101 204.725 2020-10-10 13:04:50.016 1222.101 00:05:49
9 Cole Allred IF20-VDB-0055 204.725 2020-10-10 13:04:57.258 1221.601 00:05:56
10 Dry Creek Lofts AU20-NEBO-349 210.271 2020-10-10 13:13:47.521 1218.194 00:06:56
11 Dry Creek Lofts AU20-NEB0-334 210.271 2020-10-10 13:14:10.058 1216.690 00:07:19
12 Peery Loft AU20-UCA-0049 208.66 2020-10-10 13:14:14.736 1207.058 00:09:40
13 Peery Loft AU20-UCA-0034 208.66 2020-10-10 13:14:21.553 1206.608 00:09:47
14 Riley Allred AU20-UCA-119 204.725 2020-10-10 13:08:47.235 1205.930 00:09:46
15 Craig Allred AU20-UVI-303 204.725 2020-10-10 13:09:00.290 1205.053 00:09:59
16 Cole Allred AU20-NLI-2004 204.725 2020-10-10 13:13:05.247 1188.820 00:14:04
17 Riley Allred AU20-UCA-161 204.725 2020-10-10 13:15:28.188 1179.549 00:16:27
18 Dry Creek Lofts AU20-NEBO-340 210.271 2020-10-10 13:23:51.783 1179.105 00:17:01
19 Riley Allred AU20-UCA-170 204.725 2020-10-10 13:17:55.682 1170.132 00:18:54
20 Peery Loft AU20-UCA-0005 208.66 2020-10-10 13:25:02.266 1165.709 00:20:27
21 Dry Creek Lofts AU20-NEBO-311 210.271 2020-10-10 13:29:27.823 1158.434 00:22:37
22 Riley Allred AU20-UCA-169 204.725 2020-10-10 13:23:15.868 1150.199 00:24:14
23 Riley Allred AU20-UCA-151 204.725 2020-10-10 13:23:18.333 1150.048 00:24:17
24 Peery Loft AU20-UCA-0032 208.66 2020-10-10 13:30:14.860 1146.744 00:25:40
25 Riley Allred AU20-UCA-153 204.725 2020-10-10 13:27:22.535 1135.300 00:28:21
26 Cole Allred AU20-NLI-2417 204.725 2020-10-10 13:27:23.715 1135.230 00:28:22
27 Peery Loft AU20-UCA-0007 208.66 2020-10-10 13:34:12.499 1132.735 00:29:38
28 Dry Creek Lofts AU20-NEBO-303 210.271 2020-10-10 13:38:22.883 1126.975 00:31:32
29 Cole Allred AU20-HARM-1695 204.725 2020-10-10 13:29:46.106 1126.805 00:30:45
30 Craig Allred AU20-UVI-366 204.725 2020-10-10 13:30:54.033 1122.829 00:31:53
31 Dry Creek Lofts AU-20-NEBO-323 210.271 2020-10-10 13:41:47.301 1115.403 00:34:56
32 Dry Creek Lofts AU20-NEBO-305 210.271 2020-10-10 13:41:47.943 1115.367 00:34:57
33 Peery Loft AU20-UCA-0033 208.66 2020-10-10 13:40:06.088 1112.513 00:35:31
34 Peery Loft AU20-UCA-0019 208.66 2020-10-10 13:40:24.813 1111.462 00:35:50
35 Craig Allred AU20-UVI-361 204.725 2020-10-10 13:34:47.738 1109.364 00:35:46
36 Peery Loft AU20-UCA-0035 208.66 2020-10-10 13:44:37.898 1097.452 00:40:03
37 Ross Johnson AU20-NEBO-25 203.416 2020-10-10 13:37:38.030 1092.723 00:40:27
38 Dry Creek Lofts AU20-NEBO-329 210.271 2020-10-10 13:48:53.087 1092.045 00:42:02
39 Cole Allred IF20-VDB-25 204.725 2020-10-10 13:43:42.611 1079.729 00:44:41
40 Dry Creek Lofts AU20-NEBO-315 210.271 2020-10-10 13:53:26.878 1077.536 00:46:36
41 Ross Johnson AU20-NEBO-45 203.416 2020-10-10 13:44:53.785 1069.026 00:47:43
42 Riley Allred AU20-UCA-127 204.725 2020-10-10 13:49:45.236 1060.522 00:50:44
43 Dry Creek Lofts AU20-NEBO-357 210.271 2020-10-10 14:00:44.999 1055.104 00:53:54
44 Iron Will AU20-UCA-0262 208.295 2020-10-10 13:58:22.489 1052.312 00:54:19
45 Cole Allred AU20-NLI-2008 204.725 2020-10-10 13:57:04.542 1038.150 00:58:03
46 Riley Allred AU20-UCA-147 204.725 2020-10-10 13:58:33.453 1033.736 00:59:32
47 Iron Will AU20-UCA-0277 208.295 2020-10-10 14:13:52.396 1007.491 01:09:49
48 Peery Loft AU20-UCA-0041 208.66 2020-10-10 14:20:50.791 990.281 01:16:16
49 Peery Loft AU20-UCA-0004 208.66 2020-10-10 14:22:23.099 986.190 01:17:48
50 Dry Creek Lofts AU20-NEBO-325 210.271 2020-10-10 14:25:41.607 985.052 01:18:50
51 Peery Loft AU20-UCA-0038 208.66 2020-10-10 14:22:50.813 984.968 01:18:16
52 Cole Allred AU20-NLI-2021 204.725 2020-10-10 14:17:35.133 980.225 01:18:34
53 Iron Will AU20-UCA-0250 208.295 2020-10-10 14:24:57.471 977.707 01:20:54
54 Iron Will AU20-UCA-0266 208.295 2020-10-10 14:31:18.565 961.421 01:27:15
55 Cole Allred AU20-NLI-2121 204.725 2020-10-10 14:28:44.567 951.349 01:29:43
56 Dry Creek Lofts AU20-NEBO-327 210.271 2020-10-10 14:47:37.714 930.712 01:40:46
57 Dry Creek Lofts AU20-NEBO-301 210.271 2020-10-10 14:52:14.615 920.034 01:45:23
58 Cole Allred IF20-VDB-0060 204.725 2020-10-10 14:54:57.512 889.762 01:55:56
59 Cole Allred IF20-VDB-31 204.725 2020-10-10 15:06:57.791 864.145 02:07:56
60 Iron Will AU20-UCA-0201 208.295 2020-10-10 15:16:05.664 860.370 02:12:02
61 Iron Will AU20-UCA-0290 208.295 2020-10-10 15:18:14.301 856.063 02:14:10
62 Ross Johnson AU20-NEBO-20 203.416 2020-10-10 15:17:43.355 837.021 02:20:33
63 Cole Allred AU20-HARM-2617 204.725 2020-10-10 15:22:18.066 833.485 02:23:17
64 Iron Will AU20-UCA-0265 208.295 2020-10-10 15:32:01.384 829.366 02:27:58
65 Iron Will AU20-UCA-0274 208.295 2020-10-10 15:32:30.751 828.449 02:28:27
66 Craig Allred AU20-UVI-359 204.725 2020-10-10 15:26:05.714 826.234 02:27:04
67 Dry Creek Lofts AU20-NEBO-322 210.271 2020-10-10 15:38:41.836 824.782 02:31:51
68 Riley Allred AU20-UCA-156 204.725 2020-10-10 15:34:47.873 810.068 02:35:46
69 Dry Creek Lofts AU20-NEBO-361 210.271 2020-10-10 15:46:55.537 809.930 02:40:04
70 Peery Loft AU20-UCA-0003 208.66 2020-10-10 15:46:07.450 805.136 02:41:33
71 Riley Allred AU20-UCA-144 204.725 2020-10-10 15:45:14.421 791.486 02:46:13
72 Craig Allred AU20-UVI-352 204.725 2020-10-10 15:47:34.938 787.436 02:48:33
73 Cole Allred AU20-NLI-2503 204.725 2020-10-10 15:47:55.280 786.853 02:48:54
74 Cole Allred AU20-NLI-2419 204.725 2020-10-10 15:48:21.398 786.105 02:49:20
75 Peery Loft AU20-UCA-0042 208.66 2020-10-10 15:57:12.344 786.040 02:52:38
76 Dry Creek Lofts AU20-NEBO-360 210.271 2020-10-10 16:05:54.942 777.612 02:59:04
77 Dry Creek Lofts AU20-NEBO-356 210.271 2020-10-10 16:11:57.967 767.850 03:05:07
78 Dry Creek Lofts AU20-NEBO-332 210.271 2020-10-10 16:14:46.395 763.404 03:07:55
79 Riley Allred AU20-UCA-157 204.725 2020-10-10 16:12:31.735 746.725 03:13:30
80 Riley Allred AU20-UCA-102 204.725 2020-10-10 16:13:56.105 744.556 03:14:55
81 Ross Johnson AU20-NEBO-13 203.416 2020-10-10 16:17:46.791 733.964 03:20:36
82 Cole Allred AU20-HARM-1689 204.725 2020-10-10 16:24:33.363 728.566 03:25:32
83 Riley Allred AU20-UCA-136 204.725 2020-10-10 16:27:46.653 723.851 03:28:45
84 Dry Creek Lofts AU20-UCA-301 210.271 2020-10-10 17:37:42.817 651.874 04:30:52
85 Ross Johnson AU20-NEBO-37 203.416 2020-10-10 17:31:42.512 637.364 04:34:32
Craig Allred AU20-UVI-314 0 0000-00-00 00:00:00.000 0.000 00:00:00
Craig Allred AU20-UVI-329 0 0000-00-00 00:00:00.000 0.000 00:00:00
Craig Allred AU20-UVI-339 0 0000-00-00 00:00:00.000 0.000 00:00:00
Craig Allred AU20-UVI-357 0 0000-00-00 00:00:00.000 0.000 00:00:00
Dry Creek Lofts AU20-NEBO-319 0 0000-00-00 00:00:00.000 0.000 00:00:00
Dry Creek Lofts AU20-NEBO-328 0 0000-00-00 00:00:00.000 0.000 00:00:00
Dry Creek Lofts AU20-UCA-358 0 0000-00-00 00:00:00.000 0.000 00:00:00
Peery Loft AU20-UCA-0022 0 0000-00-00 00:00:00.000 0.000 00:00:00
Riley Allred AU20-UCA-139 0 0000-00-00 00:00:00.000 0.000 00:00:00
Riley Allred AU20-UCA-145 0 0000-00-00 00:00:00.000 0.000 00:00:00
Riley Allred AU20-UCA-166 0 0000-00-00 00:00:00.000 0.000 00:00:00
Ross Johnson AU20-NEBO-15 0 0000-00-00 00:00:00.000 0.000 00:00:00
Ross Johnson AU20-NEBO-36 0 0000-00-00 00:00:00.000 0.000 00:00:00
Ross Johnson AU20-NEBO-55 0 0000-00-00 00:00:00.000 0.000 00:00:00